Twin Falls, Idaho
Current Conditions -  °F | °C
As of 11:53 AM on Tuesday 21 Oct 2014 (Local Time) from KTWF Reporting Station
Clear Clear  
Wind Chill: 55°   Ceiling: Unl
Heat Index: 55°   Visibility: 10mi
Dew Point: 35°   Wind: 28mph
Humidity: 47%   Direction: 250°WSW
Pressure: 30.03"   Gusts: 39mph
Location:  42.56°N, 114.46°W
Report Text: KTWF 211753Z 25024G34KT 10SM CLR 13/02 A3003 RMK AO2 PK WND 23035/1719 SLP129 60005 T01280017 10133 20044 51012
Loading
Personal Weather Stations






























Interactive Weather Map New forecast layout! Learn more

10-Day Weather Forecast

Advertisements
Track Severe Weather on mobile